Titusville, New Jersey
Current Conditions -  °F | °C
As of 3:53 PM on Friday 28 Nov 2014 (Local Time) from KTTN Reporting Station
Clear Clear  
Wind Chill: 23°   Ceiling: Unl
Heat Index: 33°   Visibility: 10mi
Dew Point: 13°   Wind: 14mph
Humidity: 43%   Direction: 310°NW
Pressure: 30.21"   Gusts: 23mph
Location:  40.31°N, 74.88°W
Report Text: KTTN 282053Z 31012G20KT 10SM CLR 01/M11 A3021 RMK AO2 SLP226 T00061106 53008
Loading
Personal Weather Stations






























Interactive Weather Map New forecast layout! Learn more

10-Day Weather Forecast

Advertisements
Track Severe Weather on mobile